createdAt,value
2023-10-07T00:00:50.499Z,102103.97
2023-10-07T00:03:19.244Z,102104.72
2023-10-07T00:05:51.197Z,102105.91
2023-10-07T00:08:20.728Z,102107.09
2023-10-07T00:10:50.593Z,102092.19
2023-10-07T00:13:21.370Z,102101.41
2023-10-07T00:15:53.379Z,102101.84
2023-10-07T00:18:21.136Z,102106.88
2023-10-07T00:20:50.562Z,102121.47
2023-10-07T00:23:21.334Z,102114.59
2023-10-07T00:25:53.077Z,102114.59
2023-10-07T00:28:33.794Z,102125.00
2023-10-07T00:31:04.354Z,102121.56
2023-10-07T00:34:07.007Z,102125.44
2023-10-07T00:36:33.653Z,102105.19
2023-10-07T00:39:08.188Z,102105.19
2023-10-07T00:41:40.883Z,102114.72
2023-10-07T00:44:30.508Z,102107.00
2023-10-07T00:47:06.860Z,102102.38
2023-10-07T00:49:42.738Z,102100.44
2023-10-07T00:52:13.183Z,102113.09
2023-10-07T00:54:51.852Z,102107.00
2023-10-07T00:57:44.756Z,102093.28
2023-10-07T01:00:31.674Z,102087.16
2023-10-07T01:03:18.543Z,102094.47
2023-10-07T01:06:01.284Z,102107.09
2023-10-07T01:08:33.314Z,102102.94
2023-10-07T01:11:20.452Z,102104.84
2023-10-07T01:13:51.398Z,102095.75
2023-10-07T01:16:34.866Z,102097.69
2023-10-07T01:19:27.953Z,102102.28
2023-10-07T01:22:06.620Z,102085.47
2023-10-07T01:24:39.142Z,102091.59
2023-10-07T01:27:19.860Z,102103.34
2023-10-07T01:30:10.609Z,102094.91
2023-10-07T01:32:49.398Z,102101.00
2023-10-07T01:35:26.316Z,102099.38
2023-10-07T01:38:08.071Z,102087.91
2023-10-07T01:40:56.854Z,102085.56
2023-10-07T01:43:25.763Z,102087.06
2023-10-07T01:45:54.968Z,102082.44
2023-10-07T01:48:21.773Z,102081.25
2023-10-07T01:50:50.995Z,102079.66
2023-10-07T01:53:17.580Z,102077.72
2023-10-07T01:55:44.746Z,102079.97
2023-10-07T01:58:15.765Z,102076.84
2023-10-07T02:00:58.584Z,102076.09
2023-10-07T02:03:26.463Z,102085.22
2023-10-07T02:05:53.819Z,102080.59
2023-10-07T02:08:24.138Z,102082.84
2023-10-07T02:10:53.581Z,102081.66
2023-10-07T02:13:21.304Z,102073.63
2023-10-07T02:15:48.915Z,102078.97
2023-10-07T02:18:19.096Z,102075.88
2023-10-07T02:20:50.719Z,102069.34
2023-10-07T02:23:33.665Z,102076.19
2023-10-07T02:26:00.980Z,102076.50
2023-10-07T02:28:34.126Z,102069.66
2023-10-07T02:31:08.965Z,102080.69
2023-10-07T02:33:58.698Z,102074.88
2023-10-07T02:36:37.765Z,102073.69
2023-10-07T02:39:20.174Z,102076.38
2023-10-07T02:41:47.645Z,102075.94
2023-10-07T02:44:26.969Z,102068.66
2023-10-07T02:46:54.115Z,102067.47
2023-10-07T02:49:26.158Z,102061.69
2023-10-07T02:51:59.128Z,102060.50
2023-10-07T02:54:33.897Z,102061.69
2023-10-07T02:57:06.776Z,102063.19
2023-10-07T02:59:51.938Z,102077.31
2023-10-07T03:02:19.017Z,102075.41
2023-10-07T03:05:11.782Z,102073.47
2023-10-07T03:07:42.846Z,102076.88
2023-10-07T03:10:39.384Z,102071.53
2023-10-07T03:13:06.913Z,102074.53
2023-10-07T03:15:36.383Z,102066.47
2023-10-07T03:18:04.774Z,102061.13
2023-10-07T03:20:32.877Z,102066.47
2023-10-07T03:23:16.136Z,102056.03
2023-10-07T03:26:07.258Z,102054.13
2023-10-07T03:28:38.089Z,102062.91
2023-10-07T03:31:12.378Z,102060.97
2023-10-07T03:33:54.542Z,102067.84
2023-10-07T03:36:23.022Z,102055.19
2023-10-07T03:39:18.416Z,102060.53
2023-10-07T03:41:53.108Z,102063.97
2023-10-07T03:44:21.522Z,102067.41
2023-10-07T03:46:51.343Z,102055.47
2023-10-07T03:49:22.211Z,102058.91
2023-10-07T03:51:49.952Z,102059.66
2023-10-07T03:54:25.338Z,102055.47
2023-10-07T03:56:52.828Z,102052.81
2023-10-07T03:59:19.857Z,102055.47
2023-10-07T04:01:46.586Z,102050.88
2023-10-07T04:04:14.158Z,102063.53
2023-10-07T04:06:42.032Z,102065.47
2023-10-07T04:09:09.642Z,102066.22
2023-10-07T04:11:38.874Z,102063.22
2023-10-07T04:14:19.935Z,102059.34
2023-10-07T04:16:49.984Z,102069.31
2023-10-07T04:19:19.498Z,102067.41
2023-10-07T04:21:47.068Z,102068.56
2023-10-07T04:24:14.095Z,102066.66
2023-10-07T04:26:43.780Z,102059.34
2023-10-07T04:29:22.893Z,102054.00
2023-10-07T04:31:54.923Z,102057.84
2023-10-07T04:34:22.385Z,102055.91
2023-10-07T04:37:02.193Z,102051.00
2023-10-07T04:39:30.697Z,102054.75
2023-10-07T04:42:01.192Z,102058.16
2023-10-07T04:45:05.645Z,102064.72
2023-10-07T04:47:39.938Z,102067.72
2023-10-07T04:50:16.706Z,102058.91
2023-10-07T04:52:51.493Z,102063.84
2023-10-07T04:55:27.347Z,102060.72
2023-10-07T04:57:54.262Z,102057.28
2023-10-07T05:00:38.128Z,102050.75
2023-10-07T05:03:17.290Z,102033.47
2023-10-07T05:05:44.602Z,102035.41
2023-10-07T05:08:12.536Z,102032.72
2023-10-07T05:10:42.962Z,102033.47
2023-10-07T05:13:11.194Z,102037.66
2023-10-07T05:15:43.112Z,102043.00
2023-10-07T05:18:14.153Z,102032.28
2023-10-07T05:20:43.005Z,102029.63
2023-10-07T05:23:15.669Z,102021.56
2023-10-07T05:26:06.371Z,102036.16
2023-10-07T05:28:33.874Z,102031.97
2023-10-07T05:31:04.702Z,102036.16
2023-10-07T05:33:36.864Z,102043.00
2023-10-07T05:36:12.978Z,102053.75
2023-10-07T05:38:39.989Z,102047.63
2023-10-07T05:41:13.581Z,102051.06
2023-10-07T05:43:44.277Z,102056.72
2023-10-07T05:46:12.026Z,102056.31
2023-10-07T05:48:40.045Z,102062.41
2023-10-07T05:51:11.565Z,102057.78
2023-10-07T05:53:41.500Z,102045.88
2023-10-07T05:56:08.574Z,102044.25
2023-10-07T05:58:36.869Z,102048.00
2023-10-07T06:01:04.568Z,102058.28
2023-10-07T06:03:31.638Z,102070.50
2023-10-07T06:05:58.790Z,102063.97
2023-10-07T06:08:29.345Z,102074.56
2023-10-07T06:10:58.038Z,102069.22
2023-10-07T06:13:27.521Z,102066.41
2023-10-07T06:15:57.194Z,102062.09
2023-10-07T06:18:24.351Z,102056.28
2023-10-07T06:20:52.703Z,102058.06
2023-10-07T06:23:25.635Z,102060.63
2023-10-07T06:25:53.360Z,102052.13
2023-10-07T06:28:30.450Z,102058.88
2023-10-07T06:31:12.300Z,102063.66
2023-10-07T06:33:43.164Z,102062.34
2023-10-07T06:36:13.349Z,102078.31
2023-10-07T06:38:52.952Z,102073.56
2023-10-07T06:41:20.544Z,102063.44
2023-10-07T06:43:56.287Z,102074.06
2023-10-07T06:46:23.055Z,102078.56
2023-10-07T06:48:50.394Z,102079.16
2023-10-07T06:51:18.001Z,102079.47
2023-10-07T06:53:44.838Z,102075.16
2023-10-07T06:56:22.260Z,102062.78
2023-10-07T06:58:54.959Z,102078.00
2023-10-07T07:01:39.128Z,102074.44
2023-10-07T07:04:11.430Z,102076.22
2023-10-07T07:06:45.314Z,102075.34
2023-10-07T07:09:34.750Z,102083.28
2023-10-07T07:12:10.706Z,102084.31
2023-10-07T07:14:38.690Z,102079.25
2023-10-07T07:17:24.958Z,102086.44
2023-10-07T07:20:10.725Z,102087.03
2023-10-07T07:22:51.106Z,102076.88
2023-10-07T07:25:39.853Z,102085.53
2023-10-07T07:28:07.952Z,102093.16
2023-10-07T07:30:36.449Z,102110.63
2023-10-07T07:33:16.507Z,102102.88
2023-10-07T07:35:52.329Z,102099.00
2023-10-07T07:38:32.023Z,102104.69
2023-10-07T07:41:05.727Z,102106.16
2023-10-07T07:43:37.294Z,102116.91
2023-10-07T07:46:27.757Z,102117.97
2023-10-07T07:48:55.140Z,102117.53
2023-10-07T07:51:25.840Z,102121.72
2023-10-07T07:53:53.444Z,102117.25
2023-10-07T07:56:21.731Z,102115.47
2023-10-07T07:58:51.809Z,102106.38
2023-10-07T08:01:25.115Z,102113.72
2023-10-07T08:03:51.802Z,102119.41
2023-10-07T08:06:21.362Z,102116.69
2023-10-07T08:08:50.349Z,102111.28
2023-10-07T08:11:19.392Z,102104.56
2023-10-07T08:13:47.684Z,102094.97
2023-10-07T08:16:17.259Z,102084.91
2023-10-07T08:18:45.671Z,102083.84
2023-10-07T08:21:14.975Z,102082.19
2023-10-07T08:23:42.250Z,102080.22
2023-10-07T08:26:11.996Z,102088.88
2023-10-07T08:28:43.932Z,102094.69
2023-10-07T08:31:20.036Z,102102.13
2023-10-07T08:33:54.239Z,102095.81
2023-10-07T08:36:30.409Z,102096.97
2023-10-07T08:39:00.635Z,102097.84
2023-10-07T08:41:28.378Z,102110.41
2023-10-07T08:44:17.178Z,102108.38
2023-10-07T08:46:53.927Z,102105.34
2023-10-07T08:49:27.692Z,102106.50
2023-10-07T08:51:56.103Z,102107.41
2023-10-07T08:54:38.679Z,102105.75
2023-10-07T08:57:17.837Z,102101.69
2023-10-07T08:59:50.997Z,102098.03
2023-10-07T09:02:27.933Z,102110.94
2023-10-07T09:04:56.562Z,102097.56
2023-10-07T09:07:23.991Z,102099.53
2023-10-07T09:09:50.717Z,102092.66
2023-10-07T09:12:19.387Z,102097.41
2023-10-07T09:14:54.046Z,102096.16
2023-10-07T09:17:30.723Z,102115.03
2023-10-07T09:20:02.182Z,102109.38
2023-10-07T09:22:36.480Z,102102.22
2023-10-07T09:25:18.363Z,102106.03
2023-10-07T09:27:55.962Z,102115.34
2023-10-07T09:30:37.247Z,102117.00
2023-10-07T09:33:07.794Z,102119.63
2023-10-07T09:35:36.456Z,102128.09
2023-10-07T09:38:03.868Z,102121.97
2023-10-07T09:40:49.205Z,102115.81
2023-10-07T09:43:21.086Z,102124.81
2023-10-07T09:45:53.724Z,102124.72
2023-10-07T09:48:35.043Z,102129.19
2023-10-07T09:51:03.549Z,102138.03
2023-10-07T09:53:57.041Z,102132.75
2023-10-07T09:56:49.569Z,102135.53
2023-10-07T09:59:33.321Z,102137.00
2023-10-07T10:02:27.603Z,102130.69
2023-10-07T10:05:13.008Z,102134.88
2023-10-07T10:08:12.568Z,102125.13
2023-10-07T10:10:45.646Z,102120.75
2023-10-07T10:13:40.672Z,102113.94
2023-10-07T10:16:19.862Z,102108.88
2023-10-07T10:18:52.376Z,102118.94
2023-10-07T10:21:23.698Z,102113.59
2023-10-07T10:23:52.416Z,102115.72
2023-10-07T10:26:23.660Z,102114.59
2023-10-07T10:29:08.312Z,102113.66
2023-10-07T10:31:36.124Z,102095.56
2023-10-07T10:34:06.795Z,102085.88
2023-10-07T10:36:39.578Z,102115.06
2023-10-07T10:39:37.770Z,102122.03
2023-10-07T10:42:11.170Z,102122.16
2023-10-07T10:44:39.011Z,102116.91
2023-10-07T10:47:09.192Z,102128.03
2023-10-07T10:49:44.956Z,102134.75
2023-10-07T10:52:13.409Z,102132.63
2023-10-07T10:54:40.748Z,102128.25
2023-10-07T10:57:08.986Z,102126.84
2023-10-07T10:59:48.546Z,102134.75
2023-10-07T11:02:23.571Z,102145.75
2023-10-07T11:04:57.874Z,102148.44
2023-10-07T11:07:24.907Z,102151.44
2023-10-07T11:09:55.078Z,102151.72
2023-10-07T11:12:28.124Z,102146.78
2023-10-07T11:15:08.986Z,102147.41
2023-10-07T11:17:42.705Z,102151.75
2023-10-07T11:20:12.076Z,102153.66
2023-10-07T11:22:40.176Z,102150.81
2023-10-07T11:25:16.178Z,102142.31
2023-10-07T11:27:44.028Z,102157.41
2023-10-07T11:30:16.090Z,102146.94
2023-10-07T11:32:44.662Z,102146.66
2023-10-07T11:35:20.594Z,102150.97
2023-10-07T11:37:58.881Z,102134.19
2023-10-07T11:40:27.264Z,102122.97
2023-10-07T11:42:54.817Z,102129.13
2023-10-07T11:45:24.336Z,102131.84
2023-10-07T11:47:51.097Z,102139.34
2023-10-07T11:50:18.216Z,102134.47
2023-10-07T11:52:45.793Z,102147.47
2023-10-07T11:55:12.357Z,102145.50
2023-10-07T11:57:39.196Z,102145.03
2023-10-07T12:00:11.051Z,102146.78
2023-10-07T12:02:40.232Z,102146.09
2023-10-07T12:05:08.447Z,102146.91
2023-10-07T12:07:37.014Z,102148.88
2023-10-07T12:10:07.364Z,102141.78
2023-10-07T12:12:33.998Z,102149.63
2023-10-07T12:15:00.772Z,102142.66
2023-10-07T12:17:27.353Z,102143.53
2023-10-07T12:19:54.563Z,102157.19
2023-10-07T12:22:21.127Z,102148.81
2023-10-07T12:24:47.707Z,102132.13
2023-10-07T12:27:14.311Z,102124.47
2023-10-07T12:29:41.070Z,102130.41
2023-10-07T12:32:07.849Z,102120.41
2023-10-07T12:34:34.436Z,102122.91
2023-10-07T12:37:01.050Z,102112.84
2023-10-07T12:39:31.866Z,102108.78
2023-10-07T12:41:58.541Z,102115.13
2023-10-07T12:44:26.530Z,102100.13
2023-10-07T12:46:55.401Z,102091.75
2023-10-07T12:49:23.659Z,102085.59
2023-10-07T12:51:50.183Z,102109.72
2023-10-07T12:54:18.293Z,102149.09
2023-10-07T12:56:47.653Z,102146.50
2023-10-07T12:59:24.218Z,102126.84
2023-10-07T13:01:52.715Z,102113.66
2023-10-07T13:04:26.878Z,102110.41
2023-10-07T13:07:01.748Z,102105.94
2023-10-07T13:09:31.785Z,102112.53
2023-10-07T13:11:59.394Z,102117.38
2023-10-07T13:14:28.103Z,102137.53
2023-10-07T13:16:58.303Z,102125.16
2023-10-07T13:19:27.557Z,102137.31
2023-10-07T13:22:02.521Z,102128.09
2023-10-07T13:24:30.789Z,102152.56
2023-10-07T13:26:57.502Z,102149.34
2023-10-07T13:29:24.356Z,102125.00
2023-10-07T13:31:54.324Z,102110.00
2023-10-07T13:34:22.425Z,102133.59
2023-10-07T13:36:49.688Z,102132.84
2023-10-07T13:39:19.158Z,102129.13
2023-10-07T13:41:47.004Z,102114.66
2023-10-07T13:44:17.353Z,102107.09
2023-10-07T13:46:45.802Z,102103.84
2023-10-07T13:49:16.946Z,102113.91
2023-10-07T13:51:45.379Z,102112.16
2023-10-07T13:54:23.208Z,102119.31
2023-10-07T13:56:58.530Z,102108.53
2023-10-07T13:59:26.406Z,102114.66
2023-10-07T14:01:53.897Z,102107.50
2023-10-07T14:04:20.957Z,102114.19
2023-10-07T14:06:55.901Z,102119.59
2023-10-07T14:09:25.964Z,102135.28
2023-10-07T14:11:53.672Z,102137.69
2023-10-07T14:14:20.618Z,102128.84
2023-10-07T14:16:47.933Z,102111.63
2023-10-07T14:19:15.187Z,102103.22
2023-10-07T14:21:41.924Z,102107.63
2023-10-07T14:24:08.481Z,102117.41
2023-10-07T14:26:36.053Z,102100.94
2023-10-07T14:29:10.164Z,102088.44
2023-10-07T14:31:45.123Z,102068.03
2023-10-07T14:34:13.225Z,102043.44
2023-10-07T14:36:41.282Z,102046.81
2023-10-07T14:39:13.504Z,102041.41
2023-10-07T14:41:42.391Z,102048.78
2023-10-07T14:44:11.433Z,102059.03
2023-10-07T14:46:42.866Z,102063.41
2023-10-07T14:49:10.251Z,102057.75
2023-10-07T14:51:40.018Z,102059.91
2023-10-07T14:54:06.804Z,102055.72
2023-10-07T14:56:33.859Z,102050.78
2023-10-07T14:59:00.845Z,102055.19
2023-10-07T15:01:29.134Z,102058.34
2023-10-07T15:03:56.806Z,102053.84
2023-10-07T15:06:24.179Z,102040.56
2023-10-07T15:08:51.737Z,102069.97
2023-10-07T15:11:22.946Z,102080.59
2023-10-07T15:13:51.103Z,102078.16
2023-10-07T15:16:19.005Z,102089.72
2023-10-07T15:18:48.093Z,102092.72
2023-10-07T15:21:15.768Z,102100.63
2023-10-07T15:23:42.834Z,102089.63
2023-10-07T15:26:14.014Z,102091.63
2023-10-07T15:28:41.194Z,102105.84
2023-10-07T15:31:09.365Z,102114.66
2023-10-07T15:33:53.943Z,102129.66
2023-10-07T15:36:20.783Z,102137.00
2023-10-07T15:38:50.198Z,102134.25
2023-10-07T15:41:17.530Z,102141.75
2023-10-07T15:43:44.309Z,102129.47
2023-10-07T15:46:10.922Z,102119.13
2023-10-07T15:48:37.525Z,102120.06
2023-10-07T15:51:06.496Z,102138.41
2023-10-07T15:53:34.612Z,102141.84
2023-10-07T15:56:10.723Z,102125.84
2023-10-07T15:58:38.488Z,102119.16
2023-10-07T16:01:06.185Z,102133.09
2023-10-07T16:03:35.700Z,102122.50
2023-10-07T16:06:04.637Z,102127.06
2023-10-07T16:08:37.322Z,102134.41
2023-10-07T16:11:08.117Z,102131.66
2023-10-07T16:13:35.032Z,102129.59
2023-10-07T16:16:06.618Z,102131.25
2023-10-07T16:18:42.648Z,102112.00
2023-10-07T16:21:14.145Z,102109.94
2023-10-07T16:23:41.276Z,102100.81
2023-10-07T16:26:08.126Z,102092.34
2023-10-07T16:28:38.354Z,102092.53
2023-10-07T16:31:05.620Z,102083.44
2023-10-07T16:33:33.059Z,102077.47
2023-10-07T16:36:05.258Z,102077.19
2023-10-07T16:38:35.090Z,102077.84
2023-10-07T16:41:02.819Z,102091.03
2023-10-07T16:43:34.086Z,102098.28
2023-10-07T16:46:04.837Z,102103.06
2023-10-07T16:48:34.070Z,102098.59
2023-10-07T16:51:05.355Z,102110.31
2023-10-07T16:53:35.714Z,102111.97
2023-10-07T16:56:04.993Z,102098.22
2023-10-07T16:58:31.810Z,102097.47
2023-10-07T17:00:58.477Z,102096.91
2023-10-07T17:03:26.925Z,102096.16
2023-10-07T17:05:55.041Z,102094.69
2023-10-07T17:08:22.484Z,102080.63
2023-10-07T17:10:49.056Z,102081.84
2023-10-07T17:13:16.009Z,102090.09
2023-10-07T17:15:44.139Z,102120.50
2023-10-07T17:18:12.411Z,102137.13
2023-10-07T17:20:42.887Z,102142.53
2023-10-07T17:23:11.986Z,102142.53
2023-10-07T17:25:39.261Z,102133.41
2023-10-07T17:28:08.689Z,102129.66
2023-10-07T17:30:35.314Z,102125.19
2023-10-07T17:33:03.769Z,102118.78
2023-10-07T17:35:30.559Z,102106.97
2023-10-07T17:37:57.600Z,102093.19
2023-10-07T17:40:24.492Z,102089.75
2023-10-07T17:42:57.034Z,102094.88
2023-10-07T17:45:23.683Z,102087.25
2023-10-07T17:47:50.900Z,102089.66
2023-10-07T17:50:19.152Z,102105.53
2023-10-07T17:52:47.265Z,102100.88
2023-10-07T17:55:14.928Z,102114.34
2023-10-07T17:57:43.033Z,102099.38
2023-10-07T18:00:27.565Z,102110.91
2023-10-07T18:02:56.202Z,102118.25
2023-10-07T18:05:24.477Z,102120.94
2023-10-07T18:07:52.841Z,102134.41
2023-10-07T18:10:20.999Z,102129.03
2023-10-07T18:12:48.797Z,102126.03
2023-10-07T18:15:15.429Z,102127.25
2023-10-07T18:17:42.029Z,102112.28
2023-10-07T18:20:13.823Z,102131.59
2023-10-07T18:22:47.067Z,102133.53
2023-10-07T18:25:13.991Z,102147.00
2023-10-07T18:27:40.748Z,102143.59
2023-10-07T18:30:08.764Z,102140.63
2023-10-07T18:32:39.478Z,102140.16
2023-10-07T18:35:06.804Z,102128.34
2023-10-07T18:37:33.710Z,102124.16
2023-10-07T18:40:02.372Z,102114.59
2023-10-07T18:42:33.420Z,102108.47
2023-10-07T18:45:01.327Z,102103.53
2023-10-07T18:47:28.892Z,102097.41
2023-10-07T18:49:55.748Z,102110.88
2023-10-07T18:52:23.182Z,102108.63
2023-10-07T18:54:50.329Z,102113.28
2023-10-07T18:57:17.629Z,102099.81
2023-10-07T18:59:44.291Z,102110.28
2023-10-07T19:02:10.949Z,102133.03
2023-10-07T19:04:37.562Z,102122.72
2023-10-07T19:07:04.203Z,102142.78
2023-10-07T19:09:31.004Z,102164.31
2023-10-07T19:11:57.695Z,102172.41
2023-10-07T19:14:24.756Z,102167.47
2023-10-07T19:16:51.934Z,102184.81
2023-10-07T19:19:18.954Z,102182.59
2023-10-07T19:21:45.791Z,102168.81
2023-10-07T19:24:12.418Z,102175.41
2023-10-07T19:26:40.721Z,102189.34
2023-10-07T19:29:07.412Z,102191.28
2023-10-07T19:31:33.983Z,102182.47
2023-10-07T19:34:00.573Z,102193.22
2023-10-07T19:36:27.189Z,102185.59
2023-10-07T19:38:55.057Z,102173.63
2023-10-07T19:41:21.718Z,102178.28
2023-10-07T19:43:53.267Z,102176.78
2023-10-07T19:46:22.402Z,102174.84
2023-10-07T19:48:49.253Z,102171.38
2023-10-07T19:51:16.600Z,102193.38
2023-10-07T19:53:44.972Z,102194.88
2023-10-07T19:56:12.132Z,102181.88
2023-10-07T19:58:38.807Z,102193.38
2023-10-07T20:01:08.285Z,102188.00
2023-10-07T20:03:35.983Z,102186.06
2023-10-07T20:06:07.441Z,102180.66
2023-10-07T20:08:34.218Z,102177.97
2023-10-07T20:11:00.903Z,102171.84
2023-10-07T20:13:27.477Z,102179.19
2023-10-07T20:15:54.045Z,102175.75
2023-10-07T20:18:20.827Z,102183.81
2023-10-07T20:20:58.010Z,102193.38
2023-10-07T20:23:24.628Z,102187.25
2023-10-07T20:26:03.151Z,102190.69
2023-10-07T20:28:29.758Z,102192.19
2023-10-07T20:30:56.324Z,102188.00
2023-10-07T20:33:23.039Z,102186.06
2023-10-07T20:35:49.928Z,102182.63
2023-10-07T20:38:17.065Z,102187.25
2023-10-07T20:40:54.642Z,102185.75
2023-10-07T20:43:21.158Z,102190.69
2023-10-07T20:46:01.225Z,102174.53
2023-10-07T20:48:29.083Z,102186.06
2023-10-07T20:51:00.413Z,102193.38
2023-10-07T20:53:27.002Z,102181.13
2023-10-07T20:55:53.715Z,102195.34
2023-10-07T20:58:20.502Z,102198.47
2023-10-07T21:00:47.021Z,102208.06
2023-10-07T21:03:13.714Z,102216.13
2023-10-07T21:05:40.445Z,102218.81
2023-10-07T21:08:08.704Z,102201.91
2023-10-07T21:10:39.973Z,102205.06
2023-10-07T21:13:07.201Z,102203.56
2023-10-07T21:15:36.011Z,102218.22
2023-10-07T21:18:03.377Z,102196.69
2023-10-07T21:20:34.348Z,102210.56
2023-10-07T21:23:02.884Z,102209.84
2023-10-07T21:25:37.066Z,102223.00
2023-10-07T21:28:03.926Z,102204.91
2023-10-07T21:30:30.427Z,102197.28
2023-10-07T21:32:56.980Z,102190.38
2023-10-07T21:35:25.957Z,102209.25
2023-10-07T21:37:52.539Z,102203.13
2023-10-07T21:40:19.390Z,102208.97
2023-10-07T21:42:46.015Z,102212.41
2023-10-07T21:45:12.579Z,102219.44
2023-10-07T21:47:39.216Z,102203.28
2023-10-07T21:50:07.455Z,102206.44
2023-10-07T21:52:34.151Z,102214.50
2023-10-07T21:55:00.739Z,102219.91
2023-10-07T21:57:27.325Z,102216.47
2023-10-07T21:59:54.164Z,102211.53
2023-10-07T22:02:21.355Z,102221.53
2023-10-07T22:04:49.487Z,102218.09
2023-10-07T22:07:16.054Z,102225.44
2023-10-07T22:09:42.635Z,102226.63
2023-10-07T22:12:12.778Z,102244.72
2023-10-07T22:14:39.865Z,102231.72
2023-10-07T22:17:06.758Z,102231.72
2023-10-07T22:19:33.459Z,102231.72
2023-10-07T22:22:00.502Z,102225.59
2023-10-07T22:24:28.644Z,102226.34
2023-10-07T22:26:57.799Z,102234.41
2023-10-07T22:29:24.461Z,102225.59
2023-10-07T22:31:55.723Z,102239.50
2023-10-07T22:34:23.426Z,102231.44
2023-10-07T22:36:55.846Z,102253.72
2023-10-07T22:39:31.271Z,102238.75
2023-10-07T22:41:59.275Z,102247.56
2023-10-07T22:44:27.018Z,102242.94
2023-10-07T22:47:03.923Z,102244.88
2023-10-07T22:49:34.603Z,102235.31
2023-10-07T22:52:08.910Z,102251.16
2023-10-07T22:54:41.628Z,102247.72
2023-10-07T22:57:15.085Z,102253.09
2023-10-07T22:59:42.655Z,102243.53
2023-10-07T23:02:13.405Z,102258.19
2023-10-07T23:04:48.267Z,102269.72
2023-10-07T23:07:24.287Z,102259.38
2023-10-07T23:09:54.372Z,102261.78
2023-10-07T23:12:39.705Z,102254.91
2023-10-07T23:15:15.513Z,102267.63
2023-10-07T23:17:42.141Z,102268.06
2023-10-07T23:20:26.046Z,102260.75
2023-10-07T23:22:57.520Z,102260.44
2023-10-07T23:25:25.628Z,102287.66
2023-10-07T23:27:52.219Z,102288.84
2023-10-07T23:30:28.676Z,102289.75
2023-10-07T23:33:02.456Z,102291.69
2023-10-07T23:35:33.180Z,102288.25
2023-10-07T23:38:09.575Z,102293.63
2023-10-07T23:40:37.113Z,102279.88
2023-10-07T23:43:05.847Z,102290.63
2023-10-07T23:45:40.604Z,102290.34
2023-10-07T23:48:12.891Z,102298.84
2023-10-07T23:50:43.038Z,102302.00
2023-10-07T23:53:23.114Z,102299.31
2023-10-07T23:55:56.245Z,102302.44
2023-10-07T23:58:22.804Z,102285.53
